createdAt,value
2022-08-18T00:03:00.585Z,19.04
2022-08-18T00:06:03.344Z,19.00
2022-08-18T00:09:07.229Z,18.99
2022-08-18T00:12:22.254Z,18.99
2022-08-18T00:15:24.123Z,18.99
2022-08-18T00:18:25.813Z,18.99
2022-08-18T00:21:27.480Z,18.97
2022-08-18T00:24:29.179Z,18.97
2022-08-18T00:27:31.819Z,18.96
2022-08-18T00:30:34.415Z,18.96
2022-08-18T00:33:36.073Z,18.96
2022-08-18T00:36:37.743Z,18.92
2022-08-18T00:39:46.067Z,18.89
2022-08-18T00:42:56.330Z,18.85
2022-08-18T00:45:58.527Z,18.82
2022-08-18T00:49:01.378Z,18.80
2022-08-18T00:52:04.442Z,18.74
2022-08-18T00:55:06.371Z,18.67
2022-08-18T00:58:11.885Z,18.67
2022-08-18T01:01:16.780Z,18.64
2022-08-18T01:04:27.016Z,18.62
2022-08-18T01:07:42.632Z,18.62
2022-08-18T01:10:45.433Z,18.62
2022-08-18T01:13:47.130Z,18.59
2022-08-18T01:17:08.431Z,18.57
2022-08-18T01:20:34.359Z,18.52
2022-08-18T01:23:38.410Z,18.48
2022-08-18T01:26:50.330Z,18.44
2022-08-18T01:29:51.921Z,18.42
2022-08-18T01:32:53.634Z,18.38
2022-08-18T01:35:55.318Z,18.34
2022-08-18T01:38:57.170Z,18.29
2022-08-18T01:41:58.817Z,18.23
2022-08-18T01:45:00.565Z,18.20
2022-08-18T01:48:04.972Z,18.20
2022-08-18T01:51:09.423Z,18.20
2022-08-18T01:54:14.713Z,18.23
2022-08-18T01:57:16.807Z,18.24
2022-08-18T02:00:19.277Z,18.29
2022-08-18T02:03:20.900Z,18.32
2022-08-18T02:06:32.145Z,18.36
2022-08-18T02:09:35.155Z,18.36
2022-08-18T02:12:38.190Z,18.34
2022-08-18T02:15:41.471Z,18.30
2022-08-18T02:18:47.939Z,18.28
2022-08-18T02:21:52.800Z,18.29
2022-08-18T02:24:57.452Z,18.28
2022-08-18T02:27:59.125Z,18.25
2022-08-18T02:31:11.309Z,18.30
2022-08-18T02:34:13.138Z,18.28
2022-08-18T02:37:15.681Z,18.28
2022-08-18T02:40:19.119Z,18.27
2022-08-18T02:43:20.964Z,18.29
2022-08-18T02:46:22.683Z,18.32
2022-08-18T02:49:25.561Z,18.32
2022-08-18T02:52:32.867Z,18.34
2022-08-18T02:55:35.687Z,18.34
2022-08-18T02:58:37.316Z,18.32
2022-08-18T03:01:41.431Z,18.30
2022-08-18T03:04:43.128Z,18.28
2022-08-18T03:07:46.339Z,18.25
2022-08-18T03:10:52.147Z,18.24
2022-08-18T03:13:54.429Z,18.21
2022-08-18T03:16:56.115Z,18.17
2022-08-18T03:19:57.730Z,18.15
2022-08-18T03:23:05.895Z,18.14
2022-08-18T03:26:14.275Z,18.15
2022-08-18T03:29:15.905Z,18.14
2022-08-18T03:32:18.274Z,18.13
2022-08-18T03:35:19.931Z,18.13
2022-08-18T03:38:21.560Z,18.15
2022-08-18T03:41:43.737Z,18.14
2022-08-18T03:44:48.304Z,18.09
2022-08-18T03:47:52.678Z,18.04
2022-08-18T03:50:54.712Z,17.99
2022-08-18T03:54:00.391Z,18.00
2022-08-18T03:57:02.209Z,18.00
2022-08-18T04:00:04.413Z,18.03
2022-08-18T04:03:07.936Z,18.03
2022-08-18T04:06:16.222Z,18.08
2022-08-18T04:09:33.457Z,18.06
2022-08-18T04:12:37.022Z,17.99
2022-08-18T04:15:38.751Z,17.97
2022-08-18T04:18:40.652Z,17.94
2022-08-18T04:21:43.789Z,17.93
2022-08-18T04:24:46.401Z,17.91
2022-08-18T04:27:48.007Z,17.90
2022-08-18T04:30:49.675Z,17.91
2022-08-18T04:33:51.361Z,17.92
2022-08-18T04:36:54.323Z,17.96
2022-08-18T04:39:56.189Z,17.98
2022-08-18T04:42:57.893Z,17.96
2022-08-18T04:46:02.212Z,17.97
2022-08-18T04:49:04.000Z,17.96
2022-08-18T04:52:40.089Z,17.96
2022-08-18T04:55:53.648Z,17.98
2022-08-18T04:59:14.694Z,18.07
2022-08-18T05:02:18.456Z,18.11
2022-08-18T05:05:20.276Z,18.13
2022-08-18T05:08:22.443Z,18.23
2022-08-18T05:11:28.535Z,18.31
2022-08-18T05:14:31.404Z,18.32
2022-08-18T05:17:33.019Z,18.37
2022-08-18T05:20:37.198Z,18.44
2022-08-18T05:23:39.017Z,18.50
2022-08-18T05:26:41.639Z,18.59
2022-08-18T05:29:45.673Z,18.68
2022-08-18T05:32:50.153Z,18.82
2022-08-18T05:36:03.486Z,19.41
2022-08-18T05:39:29.903Z,20.71
2022-08-18T05:42:37.082Z,22.05
2022-08-18T05:45:41.705Z,22.77
2022-08-18T05:48:43.934Z,22.73
2022-08-18T05:51:48.678Z,22.52
2022-08-18T05:55:13.869Z,22.75
2022-08-18T05:58:33.248Z,22.85
2022-08-18T06:01:44.242Z,22.29
2022-08-18T06:04:56.793Z,21.67
2022-08-18T06:08:10.943Z,21.21
2022-08-18T06:11:17.296Z,20.88
2022-08-18T06:14:24.395Z,20.66
2022-08-18T06:17:37.450Z,20.55
2022-08-18T06:21:09.949Z,20.51
2022-08-18T06:24:29.864Z,20.62
2022-08-18T06:27:40.270Z,20.78
2022-08-18T06:30:42.287Z,20.83
2022-08-18T06:34:10.579Z,20.96
2022-08-18T06:37:23.707Z,20.88
2022-08-18T06:40:25.396Z,20.76
2022-08-18T06:43:28.712Z,20.74
2022-08-18T06:46:53.858Z,20.71
2022-08-18T06:50:05.290Z,20.69
2022-08-18T06:53:26.415Z,20.73
2022-08-18T06:56:45.342Z,20.76
2022-08-18T06:59:55.525Z,20.67
2022-08-18T07:02:58.287Z,20.65
2022-08-18T07:06:22.141Z,20.70
2022-08-18T07:09:32.903Z,20.75
2022-08-18T07:12:34.949Z,20.80
2022-08-18T07:15:36.534Z,20.82
2022-08-18T07:18:38.128Z,20.85
2022-08-18T07:21:43.019Z,20.87
2022-08-18T07:24:47.801Z,20.87
2022-08-18T07:27:51.467Z,20.88
2022-08-18T07:31:17.031Z,20.90
2022-08-18T07:34:42.858Z,20.93
2022-08-18T07:38:42.100Z,21.04
2022-08-18T07:41:49.220Z,21.18
2022-08-18T07:45:00.586Z,21.30
2022-08-18T07:48:37.099Z,21.32
2022-08-18T07:51:45.582Z,21.33
2022-08-18T07:55:06.006Z,21.44
2022-08-18T07:58:31.909Z,21.67
2022-08-18T08:01:41.259Z,21.94
2022-08-18T08:04:49.545Z,22.13
2022-08-18T08:07:58.061Z,22.18
2022-08-18T08:11:23.523Z,22.13
2022-08-18T08:14:39.586Z,22.09
2022-08-18T08:17:54.067Z,22.10
2022-08-18T08:20:59.213Z,22.05
2022-08-18T08:24:09.864Z,22.10
2022-08-18T08:27:23.554Z,22.13
2022-08-18T08:30:28.935Z,22.10
2022-08-18T08:33:52.088Z,22.10
2022-08-18T08:37:04.907Z,22.18
2022-08-18T08:40:16.688Z,22.20
2022-08-18T08:43:26.554Z,22.24
2022-08-18T08:46:34.831Z,22.23
2022-08-18T08:49:46.124Z,22.24
2022-08-18T08:53:12.072Z,22.34
2022-08-18T08:56:16.849Z,22.43
2022-08-18T08:59:21.906Z,22.53
2022-08-18T09:02:48.377Z,22.63
2022-08-18T09:06:10.519Z,22.73
2022-08-18T09:09:16.786Z,22.75
2022-08-18T09:12:25.512Z,22.84
2022-08-18T09:15:39.269Z,22.90
2022-08-18T09:19:09.523Z,22.96
2022-08-18T09:22:40.331Z,22.99
2022-08-18T09:25:42.128Z,23.14
2022-08-18T09:28:59.324Z,23.31
2022-08-18T09:32:19.191Z,23.44
2022-08-18T09:35:55.003Z,23.52
2022-08-18T09:39:27.500Z,23.60
2022-08-18T09:46:00.880Z,23.77
2022-08-18T09:49:25.408Z,23.73
2022-08-18T09:52:37.456Z,23.59
2022-08-18T09:55:52.002Z,23.52
2022-08-18T09:59:02.983Z,23.46
2022-08-18T10:02:33.155Z,23.42
2022-08-18T10:05:39.760Z,23.36
2022-08-18T10:08:43.553Z,23.49
2022-08-18T10:11:56.726Z,23.62
2022-08-18T10:15:33.146Z,23.71
2022-08-18T10:18:48.064Z,23.66
2022-08-18T10:21:58.779Z,23.64
2022-08-18T10:25:14.038Z,23.56
2022-08-18T10:28:52.011Z,23.46
2022-08-18T10:31:57.500Z,23.46
2022-08-18T10:34:59.632Z,23.56
2022-08-18T10:38:06.042Z,23.80
2022-08-18T10:41:26.004Z,24.05
2022-08-18T10:44:31.720Z,24.12
2022-08-18T10:47:34.134Z,24.17
2022-08-18T10:50:48.991Z,24.16
2022-08-18T10:53:58.601Z,24.06
2022-08-18T10:57:06.423Z,23.91
2022-08-18T11:00:13.764Z,23.80
2022-08-18T11:03:51.657Z,23.78
2022-08-18T11:07:03.377Z,23.82
2022-08-18T11:10:30.367Z,23.92
2022-08-18T11:13:44.984Z,23.98
2022-08-18T11:17:17.159Z,24.13
2022-08-18T11:20:21.675Z,24.36
2022-08-18T11:23:26.100Z,24.39
2022-08-18T11:26:31.435Z,24.40
2022-08-18T11:29:37.678Z,24.46
2022-08-18T11:36:04.009Z,24.47
2022-08-18T11:39:10.715Z,24.58
2022-08-18T11:45:55.401Z,24.57
2022-08-18T11:48:58.907Z,24.49
2022-08-18T11:52:15.294Z,24.41
2022-08-18T11:55:34.469Z,24.32
2022-08-18T11:58:39.569Z,24.30
2022-08-18T12:01:43.266Z,24.35
2022-08-18T12:04:53.767Z,24.48
2022-08-18T12:07:57.757Z,24.48
2022-08-18T12:11:27.114Z,24.54
2022-08-18T12:14:50.196Z,24.69
2022-08-18T12:17:53.878Z,24.85
2022-08-18T12:20:57.628Z,24.87
2022-08-18T12:23:59.494Z,24.82
2022-08-18T12:27:01.109Z,24.79
2022-08-18T12:30:04.718Z,24.72
2022-08-18T12:33:12.178Z,24.62
2022-08-18T12:36:15.793Z,24.56
2022-08-18T12:39:18.730Z,24.57
2022-08-18T12:42:22.503Z,24.64
2022-08-18T12:45:25.833Z,24.70
2022-08-18T12:48:30.295Z,24.79
2022-08-18T12:51:32.074Z,24.82
2022-08-18T12:54:35.888Z,24.85
2022-08-18T12:57:53.278Z,24.84
2022-08-18T13:00:55.705Z,24.91
2022-08-18T13:07:20.954Z,25.02
2022-08-18T13:10:45.621Z,25.11
2022-08-18T13:13:46.250Z,25.20
2022-08-18T13:16:55.289Z,25.32
2022-08-18T13:19:57.133Z,25.32
2022-08-18T13:22:59.580Z,25.35
2022-08-18T13:26:03.292Z,25.40
2022-08-18T13:29:06.219Z,25.36
2022-08-18T13:32:12.142Z,25.43
2022-08-18T13:35:14.207Z,25.47
2022-08-18T13:38:21.818Z,25.43
2022-08-18T13:44:26.961Z,25.31
2022-08-18T13:47:29.268Z,25.32
2022-08-18T13:50:31.688Z,25.31
2022-08-18T13:53:37.539Z,25.32
2022-08-18T13:56:52.345Z,25.32
2022-08-18T13:59:54.071Z,25.31
2022-08-18T14:02:57.225Z,25.36
2022-08-18T14:06:01.636Z,25.37
2022-08-18T14:09:19.903Z,25.36
2022-08-18T14:12:30.990Z,25.34
2022-08-18T14:15:37.966Z,25.36
2022-08-18T14:18:39.605Z,25.37
2022-08-18T14:22:05.948Z,25.45
2022-08-18T14:25:26.935Z,25.50
2022-08-18T14:28:32.499Z,25.56
2022-08-18T14:31:35.517Z,25.61
2022-08-18T14:34:37.202Z,25.60
2022-08-18T14:37:39.384Z,25.53
2022-08-18T14:40:42.955Z,25.42
2022-08-18T14:43:55.624Z,25.31
2022-08-18T14:47:07.279Z,25.22
2022-08-18T14:50:12.874Z,25.10
2022-08-18T14:53:23.794Z,25.02
2022-08-18T14:56:28.736Z,24.92
2022-08-18T14:59:34.668Z,24.83
2022-08-18T15:02:40.245Z,24.79
2022-08-18T15:05:43.219Z,24.70
2022-08-18T15:08:47.066Z,24.65
2022-08-18T15:11:49.883Z,24.59
2022-08-18T15:14:55.783Z,24.53
2022-08-18T15:17:58.661Z,24.45
2022-08-18T15:21:19.667Z,24.39
2022-08-18T15:25:00.729Z,24.37
2022-08-18T15:28:02.519Z,24.32
2022-08-18T15:31:49.577Z,24.33
2022-08-18T15:34:27.589Z,24.28
2022-08-18T15:37:29.318Z,24.27
2022-08-18T15:40:35.836Z,24.23
2022-08-18T15:43:46.306Z,24.21
2022-08-18T15:46:51.256Z,24.22
2022-08-18T15:49:55.171Z,24.21
2022-08-18T15:53:03.861Z,24.21
2022-08-18T15:56:20.826Z,24.18
2022-08-18T15:59:22.768Z,24.14
2022-08-18T16:02:34.863Z,24.11
2022-08-18T16:05:52.925Z,24.10
2022-08-18T16:08:55.179Z,24.10
2022-08-18T16:12:00.276Z,24.09
2022-08-18T16:15:04.048Z,24.06
2022-08-18T16:18:10.307Z,24.04
2022-08-18T16:21:14.872Z,24.03
2022-08-18T16:24:18.287Z,24.00
2022-08-18T16:27:20.440Z,23.96
2022-08-18T16:30:24.278Z,23.92
2022-08-18T16:33:26.557Z,23.87
2022-08-18T16:36:28.238Z,23.85
2022-08-18T16:39:33.566Z,23.86
2022-08-18T16:42:35.773Z,23.87
2022-08-18T16:45:38.043Z,23.86
2022-08-18T16:48:40.330Z,23.83
2022-08-18T16:51:45.783Z,23.85
2022-08-18T16:54:48.174Z,23.86
2022-08-18T16:58:22.516Z,23.84
2022-08-18T17:01:48.866Z,23.84
2022-08-18T17:04:53.947Z,23.81
2022-08-18T17:07:55.517Z,23.81
2022-08-18T17:10:57.885Z,23.78
2022-08-18T17:14:01.599Z,23.78
2022-08-18T17:17:05.704Z,23.76
2022-08-18T17:20:11.169Z,23.75
2022-08-18T17:23:13.278Z,23.71
2022-08-18T17:26:59.641Z,23.70
2022-08-18T17:30:18.654Z,23.68
2022-08-18T17:33:24.960Z,23.64
2022-08-18T17:36:41.556Z,23.61
2022-08-18T17:40:00.411Z,23.58
2022-08-18T17:43:02.115Z,23.55
2022-08-18T17:46:14.075Z,23.53
2022-08-18T17:49:48.498Z,23.49
2022-08-18T17:53:05.511Z,23.43
2022-08-18T17:56:17.618Z,23.42
2022-08-18T17:59:51.102Z,23.39
2022-08-18T18:02:53.887Z,23.34
2022-08-18T18:06:03.756Z,23.32
2022-08-18T18:09:19.517Z,23.29
2022-08-18T18:12:25.218Z,23.24
2022-08-18T18:15:31.909Z,23.23
2022-08-18T18:18:41.962Z,23.21
2022-08-18T18:22:00.327Z,23.17
2022-08-18T18:25:06.553Z,23.13
2022-08-18T18:28:25.972Z,23.13
2022-08-18T18:31:35.579Z,23.09
2022-08-18T18:34:46.337Z,23.04
2022-08-18T18:38:01.755Z,22.98
2022-08-18T18:41:27.119Z,22.90
2022-08-18T18:44:30.738Z,22.76
2022-08-18T18:48:06.373Z,22.67
2022-08-18T18:51:33.537Z,22.58
2022-08-18T18:54:59.702Z,22.46
2022-08-18T18:58:10.450Z,22.36
2022-08-18T19:01:28.650Z,22.27
2022-08-18T19:04:33.669Z,22.17
2022-08-18T19:08:13.906Z,22.07
2022-08-18T19:11:20.324Z,22.00
2022-08-18T19:14:33.310Z,21.96
2022-08-18T19:17:45.291Z,21.89
2022-08-18T19:22:02.271Z,21.81
2022-08-18T19:24:24.748Z,21.78
2022-08-18T19:27:36.824Z,21.73
2022-08-18T19:30:42.697Z,21.69
2022-08-18T19:33:44.227Z,21.62
2022-08-18T19:36:57.426Z,21.62
2022-08-18T19:40:11.675Z,21.61
2022-08-18T19:43:36.605Z,21.55
2022-08-18T19:46:45.139Z,21.49
2022-08-18T19:50:09.049Z,21.42
2022-08-18T19:53:35.033Z,21.38
2022-08-18T19:56:49.661Z,21.31
2022-08-18T20:00:12.669Z,21.31
2022-08-18T20:03:54.492Z,21.31
2022-08-18T20:06:59.104Z,21.22
2022-08-18T20:10:08.612Z,21.19
2022-08-18T20:13:28.786Z,21.12
2022-08-18T20:16:43.175Z,21.10
2022-08-18T20:19:52.235Z,21.09
2022-08-18T20:22:57.505Z,21.09
2022-08-18T20:25:59.539Z,21.06
2022-08-18T20:29:02.214Z,21.05
2022-08-18T20:32:06.839Z,21.02
2022-08-18T20:35:21.324Z,21.01
2022-08-18T20:38:36.936Z,20.99
2022-08-18T20:41:47.197Z,20.95
2022-08-18T20:44:50.098Z,20.90
2022-08-18T20:48:12.524Z,20.87
2022-08-18T20:51:25.434Z,20.83
2022-08-18T20:54:37.971Z,20.81
2022-08-18T20:57:44.099Z,20.78
2022-08-18T21:00:51.039Z,20.76
2022-08-18T21:03:52.798Z,20.74
2022-08-18T21:06:55.071Z,20.69
2022-08-18T21:10:01.913Z,20.65
2022-08-18T21:13:46.390Z,20.61
2022-08-18T21:16:53.563Z,20.57
2022-08-18T21:20:00.866Z,20.54
2022-08-18T21:23:09.634Z,20.54
2022-08-18T21:26:16.217Z,20.53
2022-08-18T21:29:19.722Z,20.49
2022-08-18T21:32:34.031Z,20.46
2022-08-18T21:35:39.474Z,20.42
2022-08-18T21:39:05.773Z,20.42
2022-08-18T21:42:16.629Z,20.38
2022-08-18T21:45:23.334Z,20.41
2022-08-18T21:48:26.222Z,20.39
2022-08-18T21:51:48.921Z,20.40
2022-08-18T21:54:50.779Z,20.39
2022-08-18T21:58:05.830Z,20.36
2022-08-18T22:01:10.563Z,20.34
2022-08-18T22:04:25.434Z,20.30
2022-08-18T22:07:35.103Z,20.24
2022-08-18T22:10:59.711Z,20.23
2022-08-18T22:14:15.969Z,20.15
2022-08-18T22:17:30.514Z,20.10
2022-08-18T22:20:46.655Z,20.06
2022-08-18T22:24:06.780Z,20.01
2022-08-18T22:27:20.046Z,19.98
2022-08-18T22:30:21.708Z,19.92
2022-08-18T22:33:23.618Z,19.88
2022-08-18T22:36:34.743Z,19.84
2022-08-18T22:39:36.356Z,19.79
2022-08-18T22:42:38.611Z,19.75
2022-08-18T22:45:40.258Z,19.70
2022-08-18T22:48:41.950Z,19.67
2022-08-18T22:51:44.875Z,19.64
2022-08-18T22:54:46.548Z,19.58
2022-08-18T22:57:55.849Z,19.55
2022-08-18T23:01:01.166Z,19.48
2022-08-18T23:04:07.875Z,19.46
2022-08-18T23:07:09.899Z,19.44
2022-08-18T23:10:13.531Z,19.40
2022-08-18T23:13:16.742Z,19.34
2022-08-18T23:16:31.291Z,19.32
2022-08-18T23:19:34.117Z,19.28
2022-08-18T23:22:36.118Z,19.21
2022-08-18T23:25:37.704Z,19.16
2022-08-18T23:28:45.471Z,19.11
2022-08-18T23:31:48.442Z,19.07
2022-08-18T23:34:50.070Z,19.02
2022-08-18T23:37:53.157Z,18.97
2022-08-18T23:40:57.322Z,18.90
2022-08-18T23:44:00.110Z,18.87
2022-08-18T23:47:01.774Z,18.86
2022-08-18T23:50:05.439Z,18.84
2022-08-18T23:53:08.586Z,18.81
2022-08-18T23:56:10.174Z,18.79
2022-08-18T23:59:13.121Z,18.78
